Time;durP1;ratioP1;P1;durP2;ratioP2;P2;SDS_P1;SDS_P2;PMS_P1;PMS_P2;Temp;Humidity;BMP_temperature;BMP_pressure;BME280_temperature;BME280_humidity;BME280_pressure;Samples;Min_cycle;Max_cycle;Signal;HPM_P1;HPM_P2
2022/10/21 00:01:56;;;;;;;;;;;14.30;99.90;;;;;;8388218;28;19933;-80
2022/10/21 00:05:57;;;;;;;;;;;14.30;99.90;;;;;;8391650;28;19925;-80
2022/10/21 00:09:59;;;;;;;;;;;14.30;99.90;;;;;;8388746;28;19928;-80
2022/10/21 00:14:01;;;;;;;;;;;14.30;99.90;;;;;;8377060;28;20273;-80
2022/10/21 00:18:03;;;;;;;;;;;14.40;99.90;;;;;;8382769;28;20360;-81
2022/10/21 00:22:04;;;;;;;;;;;14.30;99.90;;;;;;8394244;28;19946;-81
2022/10/21 00:26:06;;;;;;;;;;;14.40;99.90;;;;;;8391916;28;19935;-80
2022/10/21 00:30:08;;;;;;;;;;;14.30;99.90;;;;;;8367997;28;19924;-79
2022/10/21 00:34:09;;;;;;;;;;;14.40;99.90;;;;;;8397490;28;19928;-79
2022/10/21 00:38:11;;;;;;;;;;;14.40;99.90;;;;;;8398595;28;20278;-79
2022/10/21 00:42:15;;;;;;;;;;;14.40;99.90;;;;;;8392424;28;19979;-79
2022/10/21 00:46:17;;;;;;;;;;;14.50;99.90;;;;;;8382900;28;19924;-80
2022/10/21 00:50:27;;;;;;;;;;;14.50;99.90;;;;;;8366801;28;19950;-79
2022/10/21 00:54:30;;;;;;;;;;;14.50;99.90;;;;;;8388722;28;19929;-79
2022/10/21 00:58:32;;;;;;;;;;;14.60;99.90;;;;;;8379397;28;20395;-79
2022/10/21 01:02:34;;;;;;;;;;;14.60;99.90;;;;;;8388568;28;19924;-79
2022/10/21 01:06:36;;;;;;;;;;;14.60;99.90;;;;;;8397508;28;19924;-80
2022/10/21 01:10:38;;;;;;;;;;;14.70;99.90;;;;;;8384775;28;20334;-80
2022/10/21 01:14:56;;;;;;;;;;;14.80;99.90;;;;;;8390246;28;19928;-79
2022/10/21 01:19:13;;;;;;;;;;;14.80;99.90;;;;;;8384278;28;19928;-80
2022/10/21 01:23:15;;;;;;;;;;;14.80;99.90;;;;;;8384970;28;19930;-79
2022/10/21 01:27:35;;;;;;;;;;;14.80;99.90;;;;;;8396814;28;20348;-79
2022/10/21 01:31:53;;;;;;;;;;;14.80;99.90;;;;;;8389671;28;19986;-79
2022/10/21 01:35:57;;;;;;;;;;;14.80;99.90;;;;;;8394171;28;20295;-79
2022/10/21 01:40:20;;;;;;;;;;;14.80;99.90;;;;;;8389041;28;19932;-80
2022/10/21 01:44:24;;;;;;;;;;;14.80;99.90;;;;;;8396576;28;20390;-80
2022/10/21 01:48:29;;;;;;;;;;;14.70;99.90;;;;;;8390123;28;19925;-79
2022/10/21 01:52:31;;;;;;;;;;;14.70;99.90;;;;;;8381831;28;20119;-80
2022/10/21 01:56:33;;;;;;;;;;;14.70;99.90;;;;;;8383482;28;19951;-79
2022/10/21 02:00:35;;;;;;;;;;;14.60;99.90;;;;;;8380523;28;20403;-80
2022/10/21 02:04:39;;;;;;;;;;;14.60;99.90;;;;;;8387614;28;19924;-80
2022/10/21 02:08:41;;;;;;;;;;;14.60;99.90;;;;;;8371728;28;19925;-80
2022/10/21 02:12:44;;;;;;;;;;;14.50;99.90;;;;;;8393125;28;20357;-79
2022/10/21 02:17:05;;;;;;;;;;;14.50;99.90;;;;;;8394754;28;19934;-79
2022/10/21 02:21:10;;;;;;;;;;;14.50;99.90;;;;;;8393873;28;20018;-79
2022/10/21 02:25:16;;;;;;;;;;;14.40;99.90;;;;;;8393689;28;20360;-79
2022/10/21 02:29:21;;;;;;;;;;;14.40;99.90;;;;;;8395649;28;20019;-79
2022/10/21 02:33:30;;;;;;;;;;;14.40;99.90;;;;;;8391945;28;19934;-79
2022/10/21 02:37:35;;;;;;;;;;;14.40;99.90;;;;;;8384424;28;19931;-79
2022/10/21 02:41:37;;;;;;;;;;;14.40;99.90;;;;;;8395553;28;19943;-79
2022/10/21 02:45:39;;;;;;;;;;;14.30;99.90;;;;;;8396520;28;20583;-80
2022/10/21 02:49:42;;;;;;;;;;;14.30;99.90;;;;;;8367457;28;20063;-80
2022/10/21 02:53:43;;;;;;;;;;;14.30;99.90;;;;;;8386384;28;19928;-79
2022/10/21 02:57:45;;;;;;;;;;;14.30;99.90;;;;;;8378102;28;19929;-79
2022/10/21 03:01:47;;;;;;;;;;;14.20;99.90;;;;;;8380626;28;19975;-79
2022/10/21 03:05:48;;;;;;;;;;;14.20;99.90;;;;;;8389651;28;19970;-80
2022/10/21 03:09:50;;;;;;;;;;;14.20;99.90;;;;;;8396524;28;20061;-80
2022/10/21 03:13:51;;;;;;;;;;;14.20;99.90;;;;;;8398741;28;19939;-79
2022/10/21 03:17:53;;;;;;;;;;;14.20;99.90;;;;;;8386114;28;20192;-80
2022/10/21 03:21:55;;;;;;;;;;;14.10;99.90;;;;;;8396998;28;19928;-80
2022/10/21 03:25:56;;;;;;;;;;;14.10;99.90;;;;;;8386090;28;19930;-80
2022/10/21 03:29:58;;;;;;;;;;;14.10;99.90;;;;;;8389607;28;20307;-79
2022/10/21 03:34:00;;;;;;;;;;;14.10;99.90;;;;;;8386257;28;20380;-80
2022/10/21 03:38:01;;;;;;;;;;;14.00;99.90;;;;;;8382076;28;20241;-80
2022/10/21 03:42:03;;;;;;;;;;;14.00;99.90;;;;;;8396713;28;20283;-80
2022/10/21 03:46:04;;;;;;;;;;;14.00;99.90;;;;;;8372680;28;19933;-80
2022/10/21 03:50:06;;;;;;;;;;;14.00;99.90;;;;;;8390394;28;19924;-81
2022/10/21 03:54:12;;;;;;;;;;;14.00;99.90;;;;;;8380807;28;20376;-81
2022/10/21 03:58:13;;;;;;;;;;;14.00;99.90;;;;;;8386696;28;19929;-81
2022/10/21 04:02:15;;;;;;;;;;;13.90;99.90;;;;;;8391619;28;20128;-80
2022/10/21 04:06:17;;;;;;;;;;;13.90;99.90;;;;;;8373364;28;19924;-80
2022/10/21 04:10:18;;;;;;;;;;;13.90;99.90;;;;;;8381956;28;19924;-80
2022/10/21 04:14:20;;;;;;;;;;;13.80;99.90;;;;;;8387501;28;20028;-80
2022/10/21 04:18:22;;;;;;;;;;;13.80;99.90;;;;;;8396660;28;19929;-80
2022/10/21 04:22:23;;;;;;;;;;;13.80;99.90;;;;;;8378742;28;20326;-80
2022/10/21 04:26:25;;;;;;;;;;;13.80;99.90;;;;;;8390520;28;19925;-80
2022/10/21 04:30:27;;;;;;;;;;;13.80;99.90;;;;;;8389433;28;20294;-79
2022/10/21 04:34:28;;;;;;;;;;;13.70;99.90;;;;;;8399153;28;19924;-79
2022/10/21 04:38:30;;;;;;;;;;;13.70;99.90;;;;;;8378253;28;19924;-80
2022/10/21 04:42:31;;;;;;;;;;;13.70;99.90;;;;;;8393249;28;19925;-79
2022/10/21 04:46:33;;;;;;;;;;;13.70;99.90;;;;;;8396928;28;19925;-80
2022/10/21 04:50:35;;;;;;;;;;;13.70;99.90;;;;;;8391896;28;19932;-79
2022/10/21 04:54:36;;;;;;;;;;;13.70;99.90;;;;;;8384537;28;19960;-80
2022/10/21 04:58:38;;;;;;;;;;;13.70;99.90;;;;;;8391738;28;20328;-79
2022/10/21 05:02:40;;;;;;;;;;;13.60;99.90;;;;;;8394761;28;20325;-80
2022/10/21 05:06:42;;;;;;;;;;;13.60;99.90;;;;;;8388538;28;19931;-79
2022/10/21 05:10:43;;;;;;;;;;;13.60;99.90;;;;;;8394461;28;20352;-80
2022/10/21 05:14:45;;;;;;;;;;;13.60;99.90;;;;;;8400594;28;19924;-80
2022/10/21 05:18:46;;;;;;;;;;;13.50;99.90;;;;;;8376379;28;19924;-80
2022/10/21 05:22:49;;;;;;;;;;;13.50;99.90;;;;;;8397396;28;19924;-80
2022/10/21 05:26:51;;;;;;;;;;;13.50;99.90;;;;;;8388376;28;19925;-83
2022/10/21 05:30:53;;;;;;;;;;;13.50;99.90;;;;;;8399707;28;20015;-80
2022/10/21 05:34:54;;;;;;;;;;;13.50;99.90;;;;;;8377419;28;19928;-80
2022/10/21 05:38:56;;;;;;;;;;;13.50;99.90;;;;;;8377264;28;19929;-80
2022/10/21 05:42:58;;;;;;;;;;;13.50;99.90;;;;;;8396494;28;20306;-79
2022/10/21 05:46:59;;;;;;;;;;;13.50;99.90;;;;;;8373410;28;20370;-79
2022/10/21 05:51:01;;;;;;;;;;;13.40;99.90;;;;;;8375310;28;19929;-79
2022/10/21 05:55:03;;;;;;;;;;;13.40;99.90;;;;;;8381134;28;20371;-80
2022/10/21 05:59:05;;;;;;;;;;;13.40;99.90;;;;;;8417414;28;19924;-80
2022/10/21 06:03:09;;;;;;;;;;;13.40;99.90;;;;;;8397593;28;19974;-80
2022/10/21 06:07:11;;;;;;;;;;;13.40;99.90;;;;;;8398956;28;19924;-80
2022/10/21 06:11:14;;;;;;;;;;;13.40;99.90;;;;;;8382438;28;19928;-79
2022/10/21 06:15:16;;;;;;;;;;;13.30;99.90;;;;;;8387393;28;19928;-80
2022/10/21 06:19:17;;;;;;;;;;;13.30;99.90;;;;;;8393879;28;19925;-79
2022/10/21 06:23:19;;;;;;;;;;;13.30;99.90;;;;;;8379820;28;20019;-79
2022/10/21 06:27:21;;;;;;;;;;;13.30;99.90;;;;;;8397398;28;19940;-79
2022/10/21 06:31:22;;;;;;;;;;;13.30;99.90;;;;;;8393266;28;19960;-80
2022/10/21 06:35:24;;;;;;;;;;;13.30;99.90;;;;;;8374398;28;19939;-80
2022/10/21 06:39:25;;;;;;;;;;;13.30;99.90;;;;;;8389708;28;19925;-81
2022/10/21 06:43:27;;;;;;;;;;;13.30;99.90;;;;;;8389641;28;19936;-80
2022/10/21 06:47:29;;;;;;;;;;;13.30;99.90;;;;;;8380026;28;20012;-80
2022/10/21 06:51:30;;;;;;;;;;;13.40;99.90;;;;;;8388184;28;19939;-80
2022/10/21 06:55:32;;;;;;;;;;;13.40;99.90;;;;;;8390434;28;19928;-80
2022/10/21 06:59:33;;;;;;;;;;;13.40;99.90;;;;;;8392183;28;19928;-80
2022/10/21 07:03:35;;;;;;;;;;;13.40;99.90;;;;;;8394917;28;20387;-80
2022/10/21 07:07:37;;;;;;;;;;;13.40;99.90;;;;;;8378500;28;19934;-80
2022/10/21 07:11:38;;;;;;;;;;;13.40;99.90;;;;;;8364974;28;19978;-79
2022/10/21 07:15:40;;;;;;;;;;;13.40;99.90;;;;;;8388424;28;20291;-80
2022/10/21 07:19:42;;;;;;;;;;;13.40;99.90;;;;;;8399037;28;19932;-80
2022/10/21 07:23:44;;;;;;;;;;;13.50;99.90;;;;;;8395572;28;19924;-80
2022/10/21 07:27:47;;;;;;;;;;;13.50;99.90;;;;;;8395965;28;19937;-80
2022/10/21 07:31:49;;;;;;;;;;;13.50;99.90;;;;;;8386566;28;19924;-80
2022/10/21 07:35:51;;;;;;;;;;;13.50;99.90;;;;;;8393189;28;19930;-79
2022/10/21 07:39:53;;;;;;;;;;;13.50;99.90;;;;;;8393861;28;20011;-80
2022/10/21 07:43:55;;;;;;;;;;;13.50;99.90;;;;;;8375275;28;20019;-80
2022/10/21 07:47:57;;;;;;;;;;;13.50;99.90;;;;;;8403359;28;19951;-80
2022/10/21 07:51:59;;;;;;;;;;;13.50;99.90;;;;;;8393635;28;19928;-80
2022/10/21 07:56:02;;;;;;;;;;;13.60;99.90;;;;;;8381424;28;20426;-80
2022/10/21 08:00:04;;;;;;;;;;;13.60;99.90;;;;;;8387497;28;19928;-80
2022/10/21 08:04:06;;;;;;;;;;;13.70;99.90;;;;;;8400414;28;19935;-80
2022/10/21 08:08:07;;;;;;;;;;;13.70;99.90;;;;;;8380009;28;19934;-80
2022/10/21 08:12:09;;;;;;;;;;;13.80;99.90;;;;;;8389046;28;19928;-80
2022/10/21 08:16:14;;;;;;;;;;;13.80;99.90;;;;;;8395660;28;19928;-80
2022/10/21 08:20:16;;;;;;;;;;;13.90;99.90;;;;;;8394184;28;19931;-80
2022/10/21 08:24:18;;;;;;;;;;;13.90;99.90;;;;;;8393950;28;19925;-81
2022/10/21 08:28:21;;;;;;;;;;;14.00;99.90;;;;;;8377225;28;19925;-80
2022/10/21 08:32:22;;;;;;;;;;;14.00;99.90;;;;;;8390869;28;19932;-80
2022/10/21 08:36:24;;;;;;;;;;;14.00;99.90;;;;;;8394364;28;19925;-80
2022/10/21 08:40:28;;;;;;;;;;;14.10;99.90;;;;;;8389181;28;19928;-80
2022/10/21 08:44:34;;;;;;;;;;;14.10;99.90;;;;;;8371561;28;19935;-81
2022/10/21 08:48:38;;;;;;;;;;;14.10;99.90;;;;;;8377139;28;19939;-80
2022/10/21 08:52:41;;;;;;;;;;;14.10;99.90;;;;;;8393291;28;20442;-81
2022/10/21 08:56:45;;;;;;;;;;;14.10;99.90;;;;;;8375925;28;19924;-81
2022/10/21 09:00:53;;;;;;;;;;;14.20;99.90;;;;;;8366803;28;19924;-80
2022/10/21 09:05:13;;;;;;;;;;;14.30;99.90;;;;;;8381479;28;19928;-81
2022/10/21 09:09:24;;;;;;;;;;;14.30;99.90;;;;;;8383437;28;19929;-82
2022/10/21 09:13:47;;;;;;;;;;;14.40;99.90;;;;;;8381777;28;19924;-81
2022/10/21 09:18:04;;;;;;;;;;;14.50;99.90;;;;;;8385167;28;20379;-81
2022/10/21 09:22:17;;;;;;;;;;;14.50;99.90;;;;;;8369849;28;20011;-81
2022/10/21 09:26:36;;;;;;;;;;;14.60;99.90;;;;;;8388081;28;20340;-81
2022/10/21 09:30:38;;;;;;;;;;;14.60;99.90;;;;;;8392608;28;19928;-81
2022/10/21 09:34:46;;;;;;;;;;;14.70;99.90;;;;;;8371431;28;19925;-80
2022/10/21 09:39:00;;;;;;;;;;;14.70;99.90;;;;;;8384548;28;20316;-81
2022/10/21 09:43:03;;;;;;;;;;;14.70;99.90;;;;;;8399205;28;20352;-81
2022/10/21 09:47:23;;;;;;;;;;;14.80;99.90;;;;;;8375776;28;19928;-81
2022/10/21 09:51:31;;;;;;;;;;;14.80;99.90;;;;;;8361837;28;19928;-81
2022/10/21 09:55:32;;;;;;;;;;;14.90;99.90;;;;;;8376581;28;19924;-81
2022/10/21 09:59:36;;;;;;;;;;;15.00;99.90;;;;;;8371085;28;19942;-82
2022/10/21 10:03:42;;;;;;;;;;;15.10;99.90;;;;;;8382124;28;19929;-81
2022/10/21 10:07:43;;;;;;;;;;;15.20;99.90;;;;;;8377372;28;20466;-81
2022/10/21 10:12:08;;;;;;;;;;;15.20;99.90;;;;;;8376165;28;19967;-81
2022/10/21 10:16:21;;;;;;;;;;;15.30;99.90;;;;;;8371703;28;19928;-81
2022/10/21 10:20:23;;;;;;;;;;;15.40;99.90;;;;;;8382531;28;20252;-81
2022/10/21 10:24:25;;;;;;;;;;;15.40;99.90;;;;;;8392086;28;20046;-82
2022/10/21 10:28:26;;;;;;;;;;;15.50;99.90;;;;;;8379775;28;19924;-81
2022/10/21 10:32:30;;;;;;;;;;;15.50;99.90;;;;;;8384928;28;19951;-80
2022/10/21 10:36:36;;;;;;;;;;;15.60;99.90;;;;;;8377053;28;19932;-82
2022/10/21 10:40:41;;;;;;;;;;;15.70;99.90;;;;;;8372285;28;20384;-82
2022/10/21 10:44:42;;;;;;;;;;;15.70;99.90;;;;;;8398026;28;19942;-81
2022/10/21 10:48:47;;;;;;;;;;;15.80;99.90;;;;;;8381523;28;20294;-82
2022/10/21 10:53:07;;;;;;;;;;;15.90;99.90;;;;;;8387892;28;19931;-81
2022/10/21 10:57:08;;;;;;;;;;;15.90;99.90;;;;;;8354280;28;19932;-81
2022/10/21 11:01:12;;;;;;;;;;;16.00;99.90;;;;;;8361227;28;20435;-81
2022/10/21 11:05:35;;;;;;;;;;;16.00;99.90;;;;;;8356231;28;19966;-82
2022/10/21 11:09:36;;;;;;;;;;;16.10;99.90;;;;;;8367720;28;19931;-82
2022/10/21 11:13:39;;;;;;;;;;;16.10;99.90;;;;;;8373738;28;19931;-83
2022/10/21 11:17:47;;;;;;;;;;;16.20;99.90;;;;;;8361155;28;19931;-83
2022/10/21 11:21:53;;;;;;;;;;;16.30;99.90;;;;;;8378325;28;19929;-82
2022/10/21 11:26:00;;;;;;;;;;;16.70;99.90;;;;;;8368386;28;19940;-83
2022/10/21 11:30:01;;;;;;;;;;;17.30;99.90;;;;;;8356468;28;20635;-82
2022/10/21 11:34:14;;;;;;;;;;;18.10;99.90;;;;;;8368583;28;20381;-83
2022/10/21 11:38:34;;;;;;;;;;;18.30;99.90;;;;;;8364466;28;20402;-83
2022/10/21 11:42:40;;;;;;;;;;;18.30;99.90;;;;;;8365932;28;19934;-83
2022/10/21 11:46:42;;;;;;;;;;;18.60;99.90;;;;;;8367348;28;19936;-83
2022/10/21 11:50:53;;;;;;;;;;;18.80;99.90;;;;;;8368014;28;19932;-83
2022/10/21 11:54:55;;;;;;;;;;;18.90;99.90;;;;;;8357366;28;20408;-83
2022/10/21 11:59:28;;;;;;;;;;;18.90;99.90;;;;;;8366466;28;20709;-83
2022/10/21 12:03:29;;;;;;;;;;;19.00;99.90;;;;;;8365388;28;20314;-83
2022/10/21 12:07:31;;;;;;;;;;;19.00;99.90;;;;;;8363443;28;19944;-83
2022/10/21 12:11:43;;;;;;;;;;;19.00;99.90;;;;;;8374000;28;19924;-83
2022/10/21 12:15:47;;;;;;;;;;;18.80;99.90;;;;;;8357966;28;19971;-81
2022/10/21 12:19:53;;;;;;;;;;;18.70;99.90;;;;;;8373835;28;19932;-82
2022/10/21 12:24:01;;;;;;;;;;;18.60;99.90;;;;;;8371044;28;19932;-81
2022/10/21 12:28:03;;;;;;;;;;;18.60;99.90;;;;;;8372300;28;19935;-81
2022/10/21 12:32:07;;;;;;;;;;;18.50;99.90;;;;;;8366705;28;19933;-82
2022/10/21 12:36:23;;;;;;;;;;;18.50;99.90;;;;;;8364419;28;20291;-82
2022/10/21 12:40:25;;;;;;;;;;;18.40;99.90;;;;;;8348514;28;19939;-83
2022/10/21 12:44:27;;;;;;;;;;;18.40;99.90;;;;;;8364431;28;19939;-83
2022/10/21 12:48:28;;;;;;;;;;;18.30;99.90;;;;;;8358992;28;19931;-83
2022/10/21 12:52:30;;;;;;;;;;;18.30;99.90;;;;;;8370357;28;19925;-82
2022/10/21 12:56:34;;;;;;;;;;;18.30;99.90;;;;;;8361178;28;19928;-83
2022/10/21 13:00:35;;;;;;;;;;;18.20;99.90;;;;;;8365172;28;19929;-82
2022/10/21 13:04:37;;;;;;;;;;;18.30;99.90;;;;;;8366794;28;19929;-82
2022/10/21 13:08:50;;;;;;;;;;;18.30;99.90;;;;;;8352111;28;20302;-81
2022/10/21 13:13:11;;;;;;;;;;;18.30;99.90;;;;;;8354609;28;20015;-83
2022/10/21 13:17:13;;;;;;;;;;;18.40;99.90;;;;;;8357155;28;19978;-83
2022/10/21 13:21:34;;;;;;;;;;;18.40;99.90;;;;;;8368371;28;19924;-82
2022/10/21 13:25:35;;;;;;;;;;;18.60;99.90;;;;;;8368506;28;20038;-83
2022/10/21 13:29:37;;;;;;;;;;;18.70;99.90;;;;;;8364373;28;19929;-81
2022/10/21 13:33:48;;;;;;;;;;;18.90;99.90;;;;;;8367048;28;19931;-80
2022/10/21 13:37:53;;;;;;;;;;;19.00;99.90;;;;;;8374027;28;19933;-80
2022/10/21 13:41:57;;;;;;;;;;;19.40;99.90;;;;;;8365026;28;19924;-81
2022/10/21 13:46:20;;;;;;;;;;;19.80;99.90;;;;;;8363625;28;20261;-80
2022/10/21 13:50:26;;;;;;;;;;;20.10;99.90;;;;;;8367762;28;20014;-80
2022/10/21 13:54:33;;;;;;;;;;;20.20;99.90;;;;;;8385850;28;20367;-80
2022/10/21 13:58:37;;;;;;;;;;;20.30;99.90;;;;;;8361227;28;20004;-81
2022/10/21 14:07:59;;;;;;;;;;;20.40;99.90;;;;;;8366210;28;20296;-81
2022/10/21 14:12:03;;;;;;;;;;;20.60;99.90;;;;;;8371668;28;19971;-81
2022/10/21 14:16:05;;;;;;;;;;;21.10;99.90;;;;;;8381110;28;20337;-82
2022/10/21 14:20:12;;;;;;;;;;;22.00;99.90;;;;;;8377435;28;19939;-81
2022/10/21 14:24:26;;;;;;;;;;;23.10;99.90;;;;;;8377842;28;20287;-80
2022/10/21 14:28:28;;;;;;;;;;;24.00;99.90;;;;;;8378646;28;19929;-80
2022/10/21 14:32:30;;;;;;;;;;;24.30;99.90;;;;;;8372776;28;19954;-82
2022/10/21 14:36:31;;;;;;;;;;;24.20;99.90;;;;;;8373044;28;19924;-81
2022/10/21 14:40:35;;;;;;;;;;;23.70;99.90;;;;;;8378546;28;20386;-81
2022/10/21 14:44:38;;;;;;;;;;;23.20;99.90;;;;;;8373840;28;20387;-82
2022/10/21 14:48:45;;;;;;;;;;;22.90;99.90;;;;;;8373691;28;19931;-82
2022/10/21 14:52:47;;;;;;;;;;;22.70;99.90;;;;;;8376874;28;19935;-81
2022/10/21 14:56:49;;;;;;;;;;;22.50;99.90;;;;;;8365200;28;19925;-81
2022/10/21 15:00:55;;;;;;;;;;;22.30;99.90;;;;;;8381764;28;20447;-81
2022/10/21 15:04:57;;;;;;;;;;;22.20;99.90;;;;;;8368811;28;20027;-81
2022/10/21 15:09:01;;;;;;;;;;;22.30;99.90;;;;;;8379861;28;19979;-81
2022/10/21 15:13:13;;;;;;;;;;;22.40;99.90;;;;;;8381037;28;19947;-81
2022/10/21 15:17:15;;;;;;;;;;;22.40;99.90;;;;;;8380698;28;19933;-81
2022/10/21 15:21:25;;;;;;;;;;;22.30;99.90;;;;;;8369688;28;19932;-81
2022/10/21 15:25:27;;;;;;;;;;;22.40;99.90;;;;;;8379330;28;19925;-81
2022/10/21 15:29:35;;;;;;;;;;;22.40;99.90;;;;;;8377104;28;20003;-81
2022/10/21 15:33:37;;;;;;;;;;;22.30;99.90;;;;;;8359899;28;19935;-81
2022/10/21 15:37:39;;;;;;;;;;;22.20;99.90;;;;;;8366313;28;19924;-81
2022/10/21 15:41:41;;;;;;;;;;;22.20;99.90;;;;;;8378401;28;20011;-81
2022/10/21 15:45:42;;;;;;;;;;;22.30;99.90;;;;;;8376654;28;20012;-81
2022/10/21 15:49:45;;;;;;;;;;;22.30;99.90;;;;;;8373677;28;19929;-80
2022/10/21 15:53:47;;;;;;;;;;;22.40;99.90;;;;;;8380932;28;20015;-81
2022/10/21 15:57:48;;;;;;;;;;;22.20;99.90;;;;;;8384408;28;20752;-81
2022/10/21 16:01:50;;;;;;;;;;;21.80;99.90;;;;;;8372785;28;19992;-81
2022/10/21 16:05:52;;;;;;;;;;;21.50;99.90;;;;;;8377318;28;19928;-82
2022/10/21 16:09:54;;;;;;;;;;;21.30;99.90;;;;;;8384771;28;19931;-81
2022/10/21 16:13:56;;;;;;;;;;;21.00;99.90;;;;;;8386765;28;20023;-81
2022/10/21 16:17:57;;;;;;;;;;;20.70;99.90;;;;;;8377971;28;19936;-82
2022/10/21 16:21:59;;;;;;;;;;;20.50;99.90;;;;;;8363130;28;19929;-81
2022/10/21 16:26:01;;;;;;;;;;;20.20;99.90;;;;;;8375721;28;20019;-81
2022/10/21 16:30:15;;;;;;;;;;;20.00;99.90;;;;;;8396755;28;20302;-81
2022/10/21 16:34:17;;;;;;;;;;;19.80;99.90;;;;;;8389144;28;19931;-81
2022/10/21 16:38:18;;;;;;;;;;;19.60;99.90;;;;;;8365601;28;20007;-81
2022/10/21 16:42:25;;;;;;;;;;;19.40;99.90;;;;;;8377714;28;20015;-81
2022/10/21 16:46:33;;;;;;;;;;;19.30;99.90;;;;;;8363774;28;20399;-81
2022/10/21 16:50:38;;;;;;;;;;;19.10;99.90;;;;;;8378696;28;20331;-81
2022/10/21 16:54:40;;;;;;;;;;;19.00;99.90;;;;;;8366718;28;19931;-81
2022/10/21 16:58:43;;;;;;;;;;;18.90;99.90;;;;;;8380522;28;19924;-81
2022/10/21 17:02:47;;;;;;;;;;;18.80;99.90;;;;;;8377300;28;20360;-81
2022/10/21 17:06:48;;;;;;;;;;;18.80;99.90;;;;;;8365597;28;19933;-81
2022/10/21 17:10:50;;;;;;;;;;;18.70;99.90;;;;;;8382034;28;19928;-81
2022/10/21 17:14:52;;;;;;;;;;;18.60;99.90;;;;;;8385369;28;20345;-81
2022/10/21 17:18:53;;;;;;;;;;;18.60;99.90;;;;;;8383051;28;19974;-81
2022/10/21 17:22:56;;;;;;;;;;;18.50;99.90;;;;;;8376608;28;20014;-81
2022/10/21 17:26:58;;;;;;;;;;;18.50;99.90;;;;;;8364377;28;19975;-81
2022/10/21 17:30:59;;;;;;;;;;;18.50;99.90;;;;;;8363228;28;19924;-81
2022/10/21 17:35:01;;;;;;;;;;;18.40;99.90;;;;;;8362394;28;20287;-81
2022/10/21 17:39:03;;;;;;;;;;;18.40;99.90;;;;;;8362920;28;20015;-81
2022/10/21 17:43:05;;;;;;;;;;;18.30;99.90;;;;;;8357056;28;20012;-81
2022/10/21 17:47:06;;;;;;;;;;;18.30;99.90;;;;;;8356041;28;20024;-80
2022/10/21 17:51:08;;;;;;;;;;;18.20;99.90;;;;;;8374324;28;19982;-81
2022/10/21 17:55:10;;;;;;;;;;;18.20;99.90;;;;;;8380649;28;20421;-81
2022/10/21 17:59:11;;;;;;;;;;;18.20;99.90;;;;;;8366067;28;19931;-81
2022/10/21 18:03:16;;;;;;;;;;;18.20;99.90;;;;;;8376144;28;19931;-81
2022/10/21 18:07:18;;;;;;;;;;;18.10;99.90;;;;;;8378086;28;19973;-81
2022/10/21 18:11:20;;;;;;;;;;;18.10;99.90;;;;;;8375181;28;19960;-81
2022/10/21 18:15:24;;;;;;;;;;;18.00;99.90;;;;;;8365362;28;19947;-81
2022/10/21 18:19:25;;;;;;;;;;;18.00;99.90;;;;;;8369293;28;19979;-81
2022/10/21 18:23:27;;;;;;;;;;;17.90;99.90;;;;;;8367397;28;19932;-81
2022/10/21 18:27:29;;;;;;;;;;;17.90;99.90;;;;;;8364951;28;19935;-81
2022/10/21 18:31:32;;;;;;;;;;;17.80;99.90;;;;;;8375401;28;20710;-81
2022/10/21 18:35:33;;;;;;;;;;;17.70;99.90;;;;;;8351227;28;19931;-80
2022/10/21 18:39:35;;;;;;;;;;;17.70;99.90;;;;;;8371275;28;19929;-80
2022/10/21 18:43:36;;;;;;;;;;;17.70;99.90;;;;;;8370387;28;19971;-81
2022/10/21 18:47:39;;;;;;;;;;;17.60;99.90;;;;;;8371781;28;19972;-81
2022/10/21 18:51:41;;;;;;;;;;;17.60;99.90;;;;;;8386462;28;20364;-81
2022/10/21 18:55:43;;;;;;;;;;;17.50;99.90;;;;;;8375213;28;19931;-81
2022/10/21 18:59:44;;;;;;;;;;;17.50;99.90;;;;;;8381328;28;19934;-81
2022/10/21 19:03:46;;;;;;;;;;;17.50;99.90;;;;;;8359921;28;19947;-81
2022/10/21 19:07:48;;;;;;;;;;;17.40;99.90;;;;;;8380474;28;19943;-81
2022/10/21 19:11:49;;;;;;;;;;;17.40;99.90;;;;;;8374158;28;19925;-81
2022/10/21 19:15:51;;;;;;;;;;;17.40;99.90;;;;;;8379394;28;19942;-81
2022/10/21 19:19:53;;;;;;;;;;;17.30;99.90;;;;;;8379251;28;19931;-81
2022/10/21 19:23:55;;;;;;;;;;;17.30;99.90;;;;;;8376796;28;19924;-80
2022/10/21 19:27:56;;;;;;;;;;;17.30;99.90;;;;;;8371826;28;20026;-81
2022/10/21 19:31:58;;;;;;;;;;;17.30;99.90;;;;;;8371951;28;19933;-81
2022/10/21 19:36:00;;;;;;;;;;;17.20;99.90;;;;;;8371701;28;20299;-81
2022/10/21 19:40:02;;;;;;;;;;;17.20;99.90;;;;;;8361918;28;19947;-81
2022/10/21 19:44:04;;;;;;;;;;;17.20;99.90;;;;;;8357642;28;19928;-81
2022/10/21 20:03:16;;;;;;;;;;;17.10;99.90;;;;;;8382262;28;20318;-81
2022/10/21 20:07:17;;;;;;;;;;;17.10;99.90;;;;;;8374834;28;19931;-81
2022/10/21 20:11:20;;;;;;;;;;;17.10;99.90;;;;;;8368220;28;20279;-81
2022/10/21 20:15:21;;;;;;;;;;;17.10;99.90;;;;;;8378960;28;19960;-81
2022/10/21 20:19:23;;;;;;;;;;;17.10;99.90;;;;;;8367840;28;19931;-81
2022/10/21 20:23:25;;;;;;;;;;;17.10;99.90;;;;;;8362019;28;19925;-80
2022/10/21 20:27:27;;;;;;;;;;;17.00;99.90;;;;;;8378110;28;19931;-81
2022/10/21 20:31:29;;;;;;;;;;;17.00;99.90;;;;;;8362813;28;21850;-81
2022/10/21 20:35:32;;;;;;;;;;;17.00;99.90;;;;;;8364084;28;19924;-81
2022/10/21 20:39:35;;;;;;;;;;;17.00;99.90;;;;;;8391289;28;20228;-80
2022/10/21 20:43:38;;;;;;;;;;;16.90;99.90;;;;;;8373006;28;20413;-81
2022/10/21 20:47:39;;;;;;;;;;;16.90;99.90;;;;;;8368622;28;20039;-80
2022/10/21 20:51:41;;;;;;;;;;;16.80;99.90;;;;;;8367162;28;20023;-81
2022/10/21 20:55:51;;;;;;;;;;;16.80;99.90;;;;;;8351971;28;19925;-80
2022/10/21 20:59:53;;;;;;;;;;;16.70;99.90;;;;;;8380467;28;19925;-80
2022/10/21 21:03:55;;;;;;;;;;;16.70;99.90;;;;;;8402194;28;19929;-81
2022/10/21 21:07:57;;;;;;;;;;;16.60;99.90;;;;;;8395812;28;20275;-81
2022/10/21 21:12:01;;;;;;;;;;;16.60;99.90;;;;;;8396105;28;19928;-81
2022/10/21 21:16:09;;;;;;;;;;;16.60;99.90;;;;;;8396188;28;19924;-81
2022/10/21 21:20:11;;;;;;;;;;;16.50;99.90;;;;;;8395837;28;19924;-81
2022/10/21 21:24:12;;;;;;;;;;;16.50;99.90;;;;;;8395475;28;19947;-81
2022/10/21 21:28:14;;;;;;;;;;;16.40;99.90;;;;;;8378190;28;20027;-80
2022/10/21 21:32:17;;;;;;;;;;;16.40;99.90;;;;;;8378353;28;19925;-80
2022/10/21 21:36:20;;;;;;;;;;;16.30;99.90;;;;;;8395642;28;20011;-80
2022/10/21 21:40:21;;;;;;;;;;;16.30;99.90;;;;;;8395579;28;20294;-81
2022/10/21 21:44:23;;;;;;;;;;;16.30;99.90;;;;;;8395678;28;19979;-80
2022/10/21 21:48:25;;;;;;;;;;;16.20;99.90;;;;;;8395493;28;19925;-81
2022/10/21 21:52:28;;;;;;;;;;;16.20;99.90;;;;;;8395546;28;19932;-81
2022/10/21 21:56:30;;;;;;;;;;;16.20;99.90;;;;;;8381836;28;19942;-80
2022/10/21 22:00:32;;;;;;;;;;;16.20;99.90;;;;;;8377105;28;20438;-81
2022/10/21 22:04:34;;;;;;;;;;;16.10;99.90;;;;;;8377234;28;19969;-80
2022/10/21 22:08:37;;;;;;;;;;;16.10;99.90;;;;;;8394864;28;20066;-81
2022/10/21 22:12:39;;;;;;;;;;;16.10;99.90;;;;;;8394945;28;19925;-79
2022/10/21 22:16:40;;;;;;;;;;;16.00;99.90;;;;;;8393125;28;20473;-80
2022/10/21 22:20:42;;;;;;;;;;;16.00;99.90;;;;;;8394984;28;19999;-80
2022/10/21 22:24:44;;;;;;;;;;;16.00;99.90;;;;;;8375993;28;20008;-81
2022/10/21 22:28:46;;;;;;;;;;;16.00;99.90;;;;;;8376504;28;20265;-80
2022/10/21 22:32:48;;;;;;;;;;;16.00;99.90;;;;;;8381454;28;19970;-81
2022/10/21 22:36:49;;;;;;;;;;;16.00;99.90;;;;;;8382323;28;19933;-81
2022/10/21 22:40:55;;;;;;;;;;;16.00;99.90;;;;;;8383975;28;19968;-80
2022/10/21 22:44:56;;;;;;;;;;;16.00;99.90;;;;;;8382719;28;20023;-81
2022/10/21 22:48:58;;;;;;;;;;;16.00;99.90;;;;;;8382924;28;19924;-80
2022/10/21 22:53:00;;;;;;;;;;;16.00;99.90;;;;;;8398785;28;19928;-81
2022/10/21 22:57:01;;;;;;;;;;;16.00;99.90;;;;;;8376058;28;20027;-80
2022/10/21 23:01:07;;;;;;;;;;;16.00;99.90;;;;;;8400097;28;19947;-81
2022/10/21 23:05:08;;;;;;;;;;;15.90;99.90;;;;;;8382167;28;19971;-80
2022/10/21 23:09:10;;;;;;;;;;;15.90;99.90;;;;;;8400031;28;20454;-80
2022/10/21 23:13:12;;;;;;;;;;;15.90;99.90;;;;;;8382415;28;19929;-80
2022/10/21 23:17:13;;;;;;;;;;;15.80;99.90;;;;;;8382281;28;19930;-81
2022/10/21 23:21:15;;;;;;;;;;;15.80;99.90;;;;;;8400013;28;20358;-80
2022/10/21 23:25:17;;;;;;;;;;;15.70;99.90;;;;;;8399145;28;19944;-80
2022/10/21 23:29:18;;;;;;;;;;;15.70;99.90;;;;;;8400049;28;19975;-80
2022/10/21 23:33:20;;;;;;;;;;;15.60;99.90;;;;;;8382338;28;20023;-80
2022/10/21 23:37:22;;;;;;;;;;;15.60;99.90;;;;;;8381457;28;20398;-80
2022/10/21 23:41:24;;;;;;;;;;;15.50;99.90;;;;;;8381760;28;20482;-81
2022/10/21 23:45:25;;;;;;;;;;;15.50;99.90;;;;;;8397972;28;20024;-81
2022/10/21 23:49:27;;;;;;;;;;;15.40;99.90;;;;;;8381745;28;20027;-81
2022/10/21 23:53:28;;;;;;;;;;;15.40;99.90;;;;;;8398796;28;20391;-80
2022/10/21 23:57:30;;;;;;;;;;;15.40;99.90;;;;;;8399230;28;19932;-80
